Terminal Aerodrome Forecast
Issued by NWS

Home | Current Version | Previous Version | Text Only | Print | Product List | Glossary On
Versions: 1 2 3 4 5 6 7 8 9 10 11 12 13 14 15 16 17 18 19 20 21
000
FTUS42 TJSJ 011759 AAA
TAFISX
TAF AMD
TISX 011759Z 0118/0218 19010KT 2SM RA VCTS SCT015CB BKN020
     FM011830 11010KT 5SM -RA VCTS SCT020CB BKN030
     FM012230 03008KT P6SM SCT020 SCT040 BKN060
     FM021230 12013KT P6SM SCT020 SCT040=

USA.gov is the U.S. government's official web portal to all federal, state and local government web resources and services.